createdAt,value
2023-03-08T00:29:21.743Z,991.4
2023-03-08T00:30:02.046Z,991.36
2023-03-08T00:30:42.546Z,991.33
2023-03-08T00:31:23.124Z,991.38
2023-03-08T00:32:03.569Z,991.37
2023-03-08T00:32:44.146Z,991.38
2023-03-08T00:33:24.513Z,991.4
2023-03-08T00:34:05.056Z,991.38
2023-03-08T00:34:45.508Z,991.37
2023-03-08T00:35:26.066Z,991.38
2023-03-08T00:36:06.551Z,991.37
2023-03-08T00:36:46.998Z,991.35
2023-03-08T00:41:17.938Z,991.25
2023-03-08T00:41:58.202Z,991.26
2023-03-08T00:42:38.725Z,991.25
2023-03-08T00:43:19.198Z,991.25
2023-03-08T00:43:59.672Z,991.22
2023-03-08T00:44:40.202Z,991.25
2023-03-08T00:45:20.644Z,991.2
2023-03-08T00:46:01.128Z,991.2
2023-03-08T00:46:41.687Z,991.21
2023-03-08T00:47:22.149Z,991.23
2023-03-08T00:48:02.651Z,991.24
2023-03-08T00:48:43.129Z,991.23
2023-03-08T00:49:23.628Z,991.25
2023-03-08T00:50:04.057Z,991.26
2023-03-08T00:50:44.559Z,991.24
2023-03-08T00:51:25.001Z,991.24
2023-03-08T00:52:05.471Z,991.26
2023-03-08T00:52:45.980Z,991.25
2023-03-08T00:53:26.423Z,991.28
2023-03-08T00:54:06.914Z,991.29
2023-03-08T00:54:47.424Z,991.32
2023-03-08T00:55:27.881Z,991.26
2023-03-08T00:56:08.371Z,991.28
2023-03-08T00:56:48.854Z,991.29
2023-03-08T00:57:29.354Z,991.25
2023-03-08T00:58:10.647Z,991.24
2023-03-08T00:58:50.356Z,991.23
2023-03-08T00:59:30.810Z,991.25
2023-03-08T01:00:11.362Z,991.21
2023-03-08T01:00:51.852Z,991.19
2023-03-08T01:01:32.339Z,991.24
2023-03-08T01:02:12.819Z,991.23
2023-03-08T01:02:53.263Z,991.21
2023-03-08T01:03:33.729Z,991.21
2023-03-08T01:04:14.241Z,991.21
2023-03-08T01:04:54.697Z,991.19
2023-03-08T01:05:35.158Z,991.22
2023-03-08T01:06:15.680Z,991.25
2023-03-08T01:06:56.133Z,991.18
2023-03-08T01:07:36.605Z,991.2
2023-03-08T01:08:17.622Z,991.27
2023-03-08T01:08:58.093Z,991.28
2023-03-08T01:09:38.602Z,991.25
2023-03-08T01:10:19.100Z,991.25
2023-03-08T01:10:59.548Z,991.24
2023-03-08T01:11:40.082Z,991.25
2023-03-08T01:12:20.545Z,991.19
2023-03-08T01:13:01.050Z,991.18
2023-03-08T01:13:41.502Z,991.19
2023-03-08T01:14:22.001Z,991.13
2023-03-08T01:15:02.505Z,991.15
2023-03-08T01:15:43.023Z,991.08
2023-03-08T01:16:23.525Z,991.1
2023-03-08T01:17:03.992Z,991.06
2023-03-08T01:17:44.550Z,991.07
2023-03-08T01:18:25.002Z,991.07
2023-03-08T01:19:05.548Z,991.08
2023-03-08T01:19:45.951Z,991.08
2023-03-08T01:20:26.465Z,991.08
2023-03-08T01:21:06.923Z,991.08
2023-03-08T01:21:47.406Z,991.05
2023-03-08T01:22:27.891Z,991.05
2023-03-08T01:23:48.845Z,991.05
2023-03-08T01:24:29.353Z,991.01
2023-03-08T01:25:09.819Z,991
2023-03-08T01:25:50.333Z,991.01
2023-03-08T01:26:30.780Z,990.97
2023-03-08T01:27:11.286Z,990.96
2023-03-08T01:27:51.779Z,990.96
2023-03-08T01:28:32.289Z,990.93
2023-03-08T01:29:12.741Z,990.9
2023-03-08T01:29:53.211Z,990.88
2023-03-08T01:30:33.730Z,990.88
2023-03-08T01:31:14.162Z,990.87
2023-03-08T01:31:54.639Z,990.83
2023-03-08T01:32:35.238Z,990.83
2023-03-08T01:33:15.567Z,990.87
2023-03-08T01:33:56.072Z,990.83
2023-03-08T01:34:36.531Z,990.85
2023-03-08T01:35:17.001Z,990.83
2023-03-08T01:35:57.576Z,990.82
2023-03-08T01:36:38.018Z,990.84
2023-03-08T01:37:18.465Z,990.8
2023-03-08T01:37:58.971Z,990.8
2023-03-08T01:38:39.422Z,990.76
2023-03-08T01:39:19.932Z,990.75
2023-03-08T01:40:00.363Z,990.77
2023-03-08T01:40:40.882Z,990.74
2023-03-08T01:41:21.340Z,990.76
2023-03-08T01:42:01.817Z,990.77
2023-03-08T01:42:42.279Z,990.78
2023-03-08T01:43:22.762Z,990.78
2023-03-08T01:44:03.193Z,990.76
2023-03-08T01:44:43.691Z,990.73
2023-03-08T01:45:24.131Z,990.72
2023-03-08T01:46:04.682Z,990.71
2023-03-08T01:46:45.187Z,990.7
2023-03-08T01:47:25.651Z,990.67
2023-03-08T01:48:06.179Z,990.65
2023-03-08T01:48:46.595Z,990.64
2023-03-08T01:49:27.116Z,990.63
2023-03-08T01:50:07.564Z,990.58
2023-03-08T01:50:48.125Z,990.57
2023-03-08T01:51:28.544Z,990.53
2023-03-08T01:52:09.094Z,990.5
2023-03-08T01:52:49.588Z,990.52
2023-03-08T01:56:03.572Z,990.5
2023-03-08T01:56:44.001Z,990.5
2023-03-08T01:57:24.493Z,990.47
2023-03-08T01:58:04.989Z,990.47
2023-03-08T01:59:25.978Z,990.44
2023-03-08T02:00:06.504Z,990.42
2023-03-08T02:00:47.001Z,990.36
2023-03-08T02:01:27.479Z,990.35
2023-03-08T02:02:07.931Z,990.32
2023-03-08T02:02:48.372Z,990.33
2023-03-08T02:03:28.908Z,990.33
2023-03-08T02:04:09.317Z,990.32
2023-03-08T02:04:49.816Z,990.3
2023-03-08T02:05:30.323Z,990.3
2023-03-08T02:06:10.836Z,990.31
2023-03-08T02:06:51.301Z,990.3
2023-03-08T02:07:31.842Z,990.3
2023-03-08T02:08:12.292Z,990.29
2023-03-08T02:08:52.760Z,990.29
2023-03-08T02:09:33.214Z,990.3
2023-03-08T02:10:13.728Z,990.27
2023-03-08T02:10:54.186Z,990.3
2023-03-08T02:11:34.656Z,990.31
2023-03-08T02:12:15.136Z,990.3
2023-03-08T02:12:55.623Z,990.29
2023-03-08T02:13:36.110Z,990.26
2023-03-08T02:14:16.621Z,990.25
2023-03-08T02:14:57.124Z,990.29
2023-03-08T02:15:37.593Z,990.28
2023-03-08T02:16:18.086Z,990.27
2023-03-08T02:16:58.565Z,990.28
2023-03-08T02:17:39.086Z,990.34
2023-03-08T02:18:19.524Z,990.32
2023-03-08T02:19:00.008Z,990.34
2023-03-08T02:19:40.467Z,990.36
2023-03-08T02:20:20.944Z,990.32
2023-03-08T02:21:01.464Z,990.33
2023-03-08T02:21:41.900Z,990.3
2023-03-08T02:22:22.428Z,990.32
2023-03-08T02:23:02.915Z,990.32
2023-03-08T02:23:43.396Z,990.33
2023-03-08T02:24:23.868Z,990.28
2023-03-08T02:25:04.344Z,990.29
2023-03-08T02:25:44.838Z,990.31
2023-03-08T02:27:05.836Z,990.27
2023-03-08T02:27:46.324Z,990.27
2023-03-08T02:28:26.799Z,990.26
2023-03-08T02:29:07.304Z,990.29
2023-03-08T02:29:47.800Z,990.24
2023-03-08T02:30:28.350Z,990.26
2023-03-08T02:31:08.803Z,990.23
2023-03-08T02:31:49.284Z,990.18
2023-03-08T02:32:29.880Z,990.14
2023-03-08T02:33:10.265Z,990.14
2023-03-08T02:34:31.174Z,990.16
2023-03-08T02:35:11.693Z,990.21
2023-03-08T02:35:52.189Z,990.22
2023-03-08T02:36:32.664Z,990.21
2023-03-08T02:37:13.120Z,990.19
2023-03-08T02:37:53.596Z,990.15
2023-03-08T02:38:34.083Z,990.13
2023-03-08T02:39:14.588Z,990.11
2023-03-08T02:39:55.072Z,990.05
2023-03-08T02:40:35.571Z,990.06
2023-03-08T02:41:16.056Z,990.03
2023-03-08T02:41:56.532Z,989.98
2023-03-08T02:42:37.006Z,989.94
2023-03-08T02:43:17.506Z,989.94
2023-03-08T02:43:57.986Z,989.89
2023-03-08T02:44:38.464Z,989.96
2023-03-08T02:45:18.935Z,989.9
2023-03-08T02:45:59.400Z,989.89
2023-03-08T02:46:39.876Z,989.92
2023-03-08T02:47:20.348Z,989.89
2023-03-08T02:48:00.829Z,989.91
2023-03-08T02:48:41.328Z,989.93
2023-03-08T02:49:21.818Z,989.92
2023-03-08T02:50:02.240Z,989.92
2023-03-08T02:50:42.710Z,989.93
2023-03-08T02:51:23.234Z,989.89
2023-03-08T02:52:03.678Z,989.92
2023-03-08T02:52:44.141Z,989.92
2023-03-08T02:53:24.644Z,989.87
2023-03-08T02:54:05.162Z,989.88
2023-03-08T02:54:45.580Z,989.89
2023-03-08T02:55:26.081Z,989.87
2023-03-08T02:56:06.577Z,989.86
2023-03-08T02:56:47.078Z,989.9
2023-03-08T02:57:27.535Z,989.86
2023-03-08T02:58:08.016Z,989.82
2023-03-08T02:58:48.484Z,989.77
2023-03-08T02:59:29.070Z,989.74
2023-03-08T03:00:09.489Z,989.73
2023-03-08T03:00:49.992Z,989.72
2023-03-08T03:01:30.501Z,989.75
2023-03-08T03:02:10.938Z,989.77
2023-03-08T03:02:51.447Z,989.78
2023-03-08T03:03:31.932Z,989.81
2023-03-08T03:04:12.550Z,989.84
2023-03-08T03:04:52.933Z,989.86
2023-03-08T03:05:33.468Z,989.81
2023-03-08T03:06:13.947Z,989.8
2023-03-08T03:06:54.440Z,989.8
2023-03-08T03:07:34.904Z,989.77
2023-03-08T03:08:15.475Z,989.71
2023-03-08T03:10:07.899Z,989.7
2023-03-08T03:13:28.540Z,989.54
2023-03-08T03:14:09.019Z,989.56
2023-03-08T03:14:49.480Z,989.48
2023-03-08T03:15:29.937Z,989.49
2023-03-08T03:16:10.436Z,989.5
2023-03-08T03:16:50.927Z,989.5
2023-03-08T03:17:31.496Z,989.46
2023-03-08T03:18:11.974Z,989.46
2023-03-08T03:18:52.455Z,989.45
2023-03-08T03:19:32.960Z,989.46
2023-03-08T03:20:13.406Z,989.45
2023-03-08T03:20:53.924Z,989.43
2023-03-08T03:21:34.401Z,989.43
2023-03-08T03:23:32.091Z,989.4
2023-03-08T03:24:12.529Z,989.4
2023-03-08T03:24:53.054Z,989.38
2023-03-08T03:25:33.537Z,989.4
2023-03-08T03:26:14.092Z,989.39
2023-03-08T03:26:54.549Z,989.37
2023-03-08T03:27:35.002Z,989.36
2023-03-08T03:28:15.512Z,989.37
2023-03-08T03:28:55.987Z,989.31
2023-03-08T03:29:36.520Z,989.31
2023-03-08T03:30:16.945Z,989.27
2023-03-08T03:30:57.455Z,989.28
2023-03-08T03:31:37.896Z,989.24
2023-03-08T03:32:18.512Z,989.3
2023-03-08T03:32:58.819Z,989.3
2023-03-08T03:33:39.294Z,989.28
2023-03-08T03:34:19.808Z,989.32
2023-03-08T03:35:00.308Z,989.25
2023-03-08T03:35:40.715Z,989.25
2023-03-08T03:36:21.190Z,989.24
2023-03-08T03:37:01.635Z,989.22
2023-03-08T03:37:42.119Z,989.22
2023-03-08T03:38:22.646Z,989.21
2023-03-08T03:39:43.590Z,989.21
2023-03-08T03:40:24.058Z,989.19
2023-03-08T03:41:04.533Z,989.18
2023-03-08T03:41:45.015Z,989.19
2023-03-08T03:42:25.505Z,989.23
2023-03-08T03:43:06.034Z,989.22
2023-03-08T03:43:46.486Z,989.21
2023-03-08T03:44:26.966Z,989.23
2023-03-08T03:45:07.450Z,989.23
2023-03-08T03:45:47.924Z,989.19
2023-03-08T03:46:28.528Z,989.18
2023-03-08T03:47:08.868Z,989.18
2023-03-08T03:47:49.374Z,989.2
2023-03-08T03:48:29.893Z,989.21
2023-03-08T03:49:10.344Z,989.22
2023-03-08T03:49:50.856Z,989.22
2023-03-08T03:50:31.350Z,989.2
2023-03-08T03:51:11.813Z,989.22
2023-03-08T03:51:52.296Z,989.22
2023-03-08T03:52:32.781Z,989.22
2023-03-08T03:53:13.251Z,989.23
2023-03-08T03:53:53.687Z,989.24
2023-03-08T03:54:34.154Z,989.2
2023-03-08T03:55:14.640Z,989.24
2023-03-08T03:55:55.071Z,989.2
2023-03-08T03:56:35.579Z,989.14
2023-03-08T03:57:16.000Z,989.17
2023-03-08T03:57:56.522Z,989.14
2023-03-08T03:58:36.939Z,989.15
2023-03-08T03:59:17.427Z,989.14
2023-03-08T03:59:57.925Z,989.14
2023-03-08T04:00:38.405Z,989.14
2023-03-08T04:01:18.903Z,989.12
2023-03-08T04:01:59.366Z,989.09
2023-03-08T04:02:39.847Z,989.08
2023-03-08T04:03:20.438Z,989.05
2023-03-08T04:04:00.842Z,989.06
2023-03-08T04:04:41.304Z,989.04
2023-03-08T04:05:21.779Z,989.05
2023-03-08T04:06:02.357Z,989.01
2023-03-08T04:06:42.725Z,989.04
2023-03-08T04:07:23.204Z,989.03
2023-03-08T04:08:03.687Z,989.02
2023-03-08T04:08:44.189Z,989
2023-03-08T04:10:05.096Z,989.02
2023-03-08T04:10:45.589Z,988.99
2023-03-08T04:11:26.047Z,988.99
2023-03-08T04:12:06.525Z,989.02
2023-03-08T04:12:47.020Z,989.01
2023-03-08T04:13:27.488Z,988.99
2023-03-08T04:14:07.984Z,989.01
2023-03-08T04:14:48.457Z,988.97
2023-03-08T04:15:29.000Z,988.99
2023-03-08T04:16:09.448Z,988.95
2023-03-08T04:17:30.389Z,988.93
2023-03-08T04:18:10.857Z,988.93
2023-03-08T04:18:51.343Z,988.93
2023-03-08T04:19:31.799Z,988.89
2023-03-08T04:20:12.262Z,988.91
2023-03-08T04:20:52.744Z,988.88
2023-03-08T04:21:33.250Z,988.89
2023-03-08T04:22:13.685Z,988.9
2023-03-08T04:22:54.194Z,988.85
2023-03-08T04:23:34.658Z,988.88
2023-03-08T04:24:15.149Z,988.85
2023-03-08T04:24:55.646Z,988.83
2023-03-08T04:25:36.148Z,988.76
2023-03-08T04:26:16.597Z,988.79
2023-03-08T04:26:57.059Z,988.72
2023-03-08T04:27:37.566Z,988.7
2023-03-08T04:28:18.032Z,988.68
2023-03-08T04:28:58.508Z,988.69
2023-03-08T04:29:39.002Z,988.66
2023-03-08T04:30:19.450Z,988.64
2023-03-08T04:31:00.007Z,988.63
2023-03-08T04:31:40.525Z,988.59
2023-03-08T04:32:20.990Z,988.58
2023-03-08T04:33:01.399Z,988.56
2023-03-08T04:33:41.929Z,988.55
2023-03-08T04:34:22.340Z,988.55
2023-03-08T04:35:02.819Z,988.55
2023-03-08T04:35:43.317Z,988.5
2023-03-08T04:36:23.809Z,988.56
2023-03-08T04:37:04.316Z,988.55
2023-03-08T04:37:44.809Z,988.5
2023-03-08T04:38:25.257Z,988.53
2023-03-08T04:39:05.732Z,988.5
2023-03-08T04:39:46.242Z,988.47
2023-03-08T04:40:26.730Z,988.45
2023-03-08T04:41:07.233Z,988.4
2023-03-08T04:42:28.179Z,988.38
2023-03-08T04:43:08.676Z,988.35
2023-03-08T04:43:49.157Z,988.33
2023-03-08T04:46:48.499Z,988.32
2023-03-08T04:47:28.814Z,988.26
2023-03-08T04:48:09.253Z,988.21
2023-03-08T04:48:49.745Z,988.23
2023-03-08T04:49:30.237Z,988.17
2023-03-08T04:50:10.768Z,988.15
2023-03-08T04:50:51.288Z,988.19
2023-03-08T04:51:31.794Z,988.11
2023-03-08T04:54:45.421Z,988.08
2023-03-08T04:55:25.867Z,988.11
2023-03-08T04:56:06.352Z,988.08
2023-03-08T04:56:46.915Z,988.06
2023-03-08T04:57:27.390Z,988.03
2023-03-08T04:58:07.902Z,988
2023-03-08T04:58:48.358Z,987.97
2023-03-08T04:59:28.786Z,987.98
2023-03-08T05:00:09.248Z,987.97
2023-03-08T05:00:49.730Z,987.96
2023-03-08T05:01:30.246Z,987.96
2023-03-08T05:02:10.801Z,987.98
2023-03-08T05:04:08.466Z,987.96
2023-03-08T05:04:48.931Z,987.94
2023-03-08T05:05:29.329Z,987.98
2023-03-08T05:06:09.853Z,987.92
2023-03-08T05:06:50.338Z,987.93
2023-03-08T05:07:30.874Z,987.92
2023-03-08T05:08:11.283Z,987.94
2023-03-08T05:10:24.530Z,987.89
2023-03-08T05:11:04.978Z,987.89
2023-03-08T05:11:45.459Z,987.84
2023-03-08T05:12:25.940Z,987.85
2023-03-08T05:13:06.466Z,987.8
2023-03-08T05:13:46.931Z,987.82
2023-03-08T05:16:15.253Z,987.81
2023-03-08T05:16:55.749Z,987.8
2023-03-08T05:17:36.275Z,987.77
2023-03-08T05:18:16.748Z,987.73
2023-03-08T05:18:57.236Z,987.69
2023-03-08T05:19:38.424Z,987.66
2023-03-08T05:20:19.056Z,987.62
2023-03-08T05:20:59.525Z,987.6
2023-03-08T05:21:40.067Z,987.6
2023-03-08T05:22:20.444Z,987.58
2023-03-08T05:23:00.964Z,987.59
2023-03-08T05:23:41.437Z,987.56
2023-03-08T05:24:21.951Z,987.55
2023-03-08T05:25:02.461Z,987.56
2023-03-08T05:25:42.986Z,987.54
2023-03-08T05:26:23.432Z,987.57
2023-03-08T05:27:03.917Z,987.53
2023-03-08T05:27:44.391Z,987.48
2023-03-08T05:28:24.886Z,987.52
2023-03-08T05:29:05.366Z,987.51
2023-03-08T05:29:45.860Z,987.45
2023-03-08T05:30:26.358Z,987.49
2023-03-08T05:31:06.900Z,987.45
2023-03-08T05:32:27.857Z,987.43
2023-03-08T05:33:08.339Z,987.41
2023-03-08T05:33:48.810Z,987.39
2023-03-08T05:34:29.323Z,987.35
2023-03-08T05:35:09.813Z,987.28
2023-03-08T05:35:50.425Z,987.29
2023-03-08T05:36:31.706Z,987.29
2023-03-08T05:37:12.193Z,987.28
2023-03-08T05:37:52.701Z,987.24
2023-03-08T05:38:33.151Z,987.24
2023-03-08T05:39:13.689Z,987.23
2023-03-08T05:39:54.101Z,987.19
2023-03-08T05:40:34.569Z,987.21
2023-03-08T05:41:15.114Z,987.21
2023-03-08T05:42:36.044Z,987.2
2023-03-08T05:43:16.511Z,987.17
2023-03-08T05:43:56.984Z,987.17
2023-03-08T05:44:37.500Z,987.12
2023-03-08T05:45:18.113Z,987.11
2023-03-08T05:45:58.643Z,987.13
2023-03-08T05:46:39.143Z,987.08
2023-03-08T05:47:19.496Z,987.05
2023-03-08T05:48:00.042Z,987.03
2023-03-08T05:48:40.662Z,986.99
2023-03-08T05:49:21.080Z,986.97
2023-03-08T05:50:01.638Z,986.97
2023-03-08T05:50:42.146Z,986.92
2023-03-08T05:51:22.713Z,986.91
2023-03-08T05:52:04.064Z,986.88
2023-03-08T05:52:44.487Z,986.88
2023-03-08T06:31:38.932Z,985.85
2023-03-08T06:32:19.475Z,985.87
2023-03-08T06:33:00.103Z,985.85
2023-03-08T06:33:40.523Z,985.85
2023-03-08T06:34:22.519Z,985.83
2023-03-08T06:35:03.005Z,985.76
2023-03-08T06:35:43.579Z,985.75
2023-03-08T06:36:24.102Z,985.74
2023-03-08T06:37:04.657Z,985.73
2023-03-08T06:37:45.192Z,985.75
2023-03-08T06:38:27.042Z,985.73
2023-03-08T06:39:06.191Z,985.75
2023-03-08T06:39:46.848Z,985.67
2023-03-08T06:40:27.321Z,985.65
2023-03-08T06:41:08.781Z,985.66
2023-03-08T06:41:49.340Z,985.61
2023-03-08T06:42:40.521Z,985.59
2023-03-08T06:43:10.326Z,985.61
2023-03-08T06:43:50.835Z,985.55
2023-03-08T06:44:31.349Z,985.55
2023-03-08T06:45:11.861Z,985.52
2023-03-08T06:45:52.521Z,985.5
2023-03-08T06:46:33.102Z,985.47
2023-03-08T06:47:13.683Z,985.43
2023-03-08T06:47:54.094Z,985.37
2023-03-08T06:48:34.591Z,985.36
2023-03-08T06:49:15.148Z,985.39
2023-03-08T06:49:55.696Z,985.32
2023-03-08T06:50:36.811Z,985.42
2023-03-08T06:51:17.283Z,985.4
2023-03-08T06:51:57.803Z,985.34
2023-03-08T06:52:38.355Z,985.3
2023-03-08T06:53:18.897Z,985.26
2023-03-08T06:53:59.413Z,985.24
2023-03-08T06:54:39.924Z,985.25
2023-03-08T06:55:21.004Z,985.23
2023-03-08T06:56:01.594Z,985.19
2023-03-08T06:56:42.063Z,985.26
2023-03-08T06:57:22.572Z,985.21
2023-03-08T06:58:03.123Z,985.24
2023-03-08T06:58:43.655Z,985.21
2023-03-08T06:59:24.251Z,985.18
2023-03-08T07:00:04.758Z,985.15
2023-03-08T07:00:45.252Z,985.17
2023-03-08T07:01:25.821Z,985.16
2023-03-08T07:02:06.284Z,985.15
2023-03-08T07:02:47.775Z,985.14
2023-03-08T07:03:28.335Z,985.11
2023-03-08T07:04:09.136Z,985.11
2023-03-08T07:04:49.813Z,985.18
2023-03-08T07:05:29.932Z,985.17
2023-03-08T07:06:10.489Z,985.23
2023-03-08T07:06:51.000Z,985.18
2023-03-08T07:07:31.573Z,985.21
2023-03-08T07:08:52.724Z,985.16
2023-03-08T07:09:33.280Z,985.16
2023-03-08T07:10:13.856Z,985.2
2023-03-08T07:10:54.529Z,985.17
2023-03-08T07:11:34.984Z,985.2
2023-03-08T07:12:15.611Z,985.11
2023-03-08T07:12:57.121Z,985.14
2023-03-08T07:13:37.720Z,985.13
2023-03-08T07:14:18.315Z,985.08
2023-03-08T07:14:58.760Z,985.06
2023-03-08T07:16:19.907Z,985.01
2023-03-08T07:17:01.045Z,985.03
2023-03-08T07:17:41.565Z,985.02
2023-03-08T07:18:22.971Z,984.95
2023-03-08T07:19:02.856Z,984.91
2023-03-08T07:19:43.258Z,984.98
2023-03-08T07:20:23.848Z,985.03
2023-03-08T07:21:06.361Z,985.04
2023-03-08T07:21:46.866Z,985.02
2023-03-08T07:22:28.334Z,985.04
2023-03-08T07:23:49.582Z,985.12
2023-03-08T07:24:32.044Z,985.06
2023-03-08T07:25:12.659Z,985.05
2023-03-08T07:25:56.277Z,985.06
2023-03-08T07:26:36.767Z,985.05
2023-03-08T07:27:17.243Z,985.02
2023-03-08T07:30:15.928Z,984.86
2023-03-08T07:30:56.441Z,984.81
2023-03-08T07:31:40.647Z,984.82
2023-03-08T07:32:21.758Z,984.76
2023-03-08T07:33:02.269Z,984.75
2023-03-08T07:33:44.648Z,984.8
2023-03-08T07:34:25.255Z,984.81
2023-03-08T07:35:05.724Z,984.85
2023-03-08T07:36:29.318Z,984.81
2023-03-08T07:37:09.854Z,984.81
2023-03-08T07:37:50.692Z,984.82
2023-03-08T07:38:31.247Z,984.89
2023-03-08T07:39:11.853Z,984.86
2023-03-08T07:39:52.516Z,984.87
2023-03-08T07:40:33.030Z,984.89
2023-03-08T07:41:13.574Z,984.89
2023-03-08T07:41:54.133Z,984.9
2023-03-08T07:42:34.660Z,984.89
2023-03-08T07:43:55.741Z,984.9
2023-03-08T07:44:36.311Z,984.87
2023-03-08T07:51:16.385Z,984.82
2023-03-08T07:51:56.808Z,984.77
2023-03-08T08:00:10.254Z,984.67
2023-03-08T08:00:50.677Z,984.61
2023-03-08T08:01:31.238Z,984.6
2023-03-08T08:02:11.807Z,984.6
2023-03-08T08:02:52.506Z,984.58
2023-03-08T08:03:33.966Z,984.61
2023-03-08T08:04:14.403Z,984.6
2023-03-08T08:04:54.995Z,984.6
2023-03-08T08:05:35.626Z,984.6
2023-03-08T08:06:16.275Z,984.53
2023-03-08T08:06:56.989Z,984.54
2023-03-08T08:07:38.260Z,984.5
2023-03-08T08:08:18.455Z,984.48
2023-03-08T08:08:58.845Z,984.45
2023-03-08T08:09:39.820Z,984.48
2023-03-08T08:10:20.307Z,984.45
2023-03-08T08:11:00.875Z,984.43
2023-03-08T08:11:41.627Z,984.45
2023-03-08T08:12:22.178Z,984.45
2023-03-08T08:13:02.760Z,984.46
2023-03-08T08:13:44.117Z,984.42
2023-03-08T08:14:24.846Z,984.43
2023-03-08T08:15:05.374Z,984.4
2023-03-08T08:15:45.984Z,984.4
2023-03-08T08:16:26.772Z,984.36
2023-03-08T08:17:07.200Z,984.4
2023-03-08T08:17:47.814Z,984.35
2023-03-08T08:18:28.460Z,984.33
2023-03-08T08:19:09.048Z,984.33
2023-03-08T08:19:49.599Z,984.31
2023-03-08T08:20:30.328Z,984.26
2023-03-08T08:21:10.855Z,984.25
2023-03-08T08:21:51.510Z,984.25
2023-03-08T08:22:31.957Z,984.25
2023-03-08T08:23:12.517Z,984.23
2023-03-08T08:23:53.076Z,984.24
2023-03-08T08:24:33.624Z,984.23
2023-03-08T08:25:14.250Z,984.24
2023-03-08T08:25:54.828Z,984.22
2023-03-08T08:26:35.495Z,984.24
2023-03-08T08:27:15.964Z,984.16
2023-03-08T08:27:56.560Z,984.15
2023-03-08T08:28:37.758Z,984.12
2023-03-08T08:29:18.351Z,984.09
2023-03-08T08:29:58.955Z,984.09
2023-03-08T08:30:39.520Z,984.11
2023-03-08T08:31:20.159Z,984.11
2023-03-08T08:32:00.776Z,984.08
2023-03-08T08:32:41.372Z,984.11
2023-03-08T08:33:21.942Z,984.09
2023-03-08T08:34:02.549Z,984.04
2023-03-08T08:34:43.031Z,984.04
2023-03-08T08:35:28.891Z,984.04
2023-03-08T08:36:04.250Z,984.02
2023-03-08T08:36:44.757Z,984.01
2023-03-08T08:37:25.259Z,983.99
2023-03-08T08:38:05.820Z,984.04
2023-03-08T08:38:46.498Z,983.99
2023-03-08T08:39:26.897Z,983.96
2023-03-08T08:40:07.492Z,983.97
2023-03-08T08:40:48.109Z,983.97
2023-03-08T08:41:28.682Z,983.91
2023-03-08T08:42:09.152Z,983.96
2023-03-08T08:42:49.736Z,983.92
2023-03-08T08:43:30.248Z,983.95
2023-03-08T08:46:44.198Z,983.91
2023-03-08T08:47:24.751Z,983.89
2023-03-08T08:48:05.844Z,983.84
2023-03-08T08:48:46.420Z,983.88
2023-03-08T08:49:27.053Z,983.87
2023-03-08T08:50:07.760Z,983.85
2023-03-08T08:50:48.359Z,983.81
2023-03-08T08:51:29.028Z,983.79
2023-03-08T08:52:09.551Z,983.82
2023-03-08T08:52:50.173Z,983.8
2023-03-08T08:54:11.318Z,983.78
2023-03-08T08:54:51.833Z,983.79
2023-03-08T08:55:32.237Z,983.78
2023-03-08T08:56:25.504Z,983.83
2023-03-08T08:56:53.328Z,983.78
2023-03-08T08:57:33.887Z,983.77
2023-03-08T08:58:14.515Z,983.8
2023-03-08T08:58:55.087Z,983.81
2023-03-08T08:59:35.621Z,983.78
2023-03-08T09:00:16.118Z,983.82
2023-03-08T09:00:56.605Z,983.77
2023-03-08T09:01:37.180Z,983.78
2023-03-08T09:02:17.795Z,983.85
2023-03-08T09:02:58.376Z,983.78
2023-03-08T09:03:38.822Z,983.76
2023-03-08T09:04:19.459Z,983.79
2023-03-08T09:05:00.009Z,983.81
2023-03-08T09:05:40.650Z,983.82
2023-03-08T09:06:21.193Z,983.78
2023-03-08T09:07:01.789Z,983.78
2023-03-08T09:07:42.299Z,983.78
2023-03-08T09:08:22.889Z,983.78
2023-03-08T09:09:03.684Z,983.74
2023-03-08T09:09:44.132Z,983.71
2023-03-08T09:10:24.632Z,983.68
2023-03-08T09:11:05.094Z,983.67
2023-03-08T09:11:54.486Z,983.66
2023-03-08T09:12:26.205Z,983.64
2023-03-08T09:13:06.747Z,983.61
2023-03-08T09:13:47.293Z,983.67
2023-03-08T09:14:27.885Z,983.64
2023-03-08T09:15:08.386Z,983.65
2023-03-08T09:15:48.992Z,983.64
2023-03-08T09:16:29.600Z,983.65
2023-03-08T09:17:10.154Z,983.63
2023-03-08T09:17:50.774Z,983.63
2023-03-08T09:18:31.260Z,983.62
2023-03-08T09:19:11.837Z,983.59
2023-03-08T09:19:52.358Z,983.61
2023-03-08T09:20:32.879Z,983.59
2023-03-08T09:21:13.569Z,983.63
2023-03-08T09:21:54.055Z,983.64
2023-03-08T09:22:34.615Z,983.6
2023-03-08T09:24:47.437Z,983.63
2023-03-08T09:25:27.931Z,983.58
2023-03-08T09:26:09.494Z,983.59
2023-03-08T09:26:50.072Z,983.54
2023-03-08T09:27:30.568Z,983.61
2023-03-08T09:28:11.060Z,983.59
2023-03-08T09:28:51.595Z,983.58
2023-03-08T09:29:32.627Z,983.57
2023-03-08T09:30:13.282Z,983.58
2023-03-08T09:30:53.748Z,983.55
2023-03-08T09:31:34.297Z,983.52
2023-03-08T09:32:15.501Z,983.47
2023-03-08T09:32:55.949Z,983.5
2023-03-08T09:33:36.419Z,983.47
2023-03-08T09:34:16.957Z,983.48
2023-03-08T09:34:57.449Z,983.44
2023-03-08T09:35:37.989Z,983.45
2023-03-08T09:36:18.570Z,983.48
2023-03-08T09:36:59.024Z,983.44
2023-03-08T09:37:39.599Z,983.4
2023-03-08T09:38:20.097Z,983.4
2023-03-08T09:39:00.591Z,983.36
2023-03-08T09:39:41.089Z,983.37
2023-03-08T09:40:21.724Z,983.41
2023-03-08T09:41:02.160Z,983.36
2023-03-08T09:41:42.754Z,983.37
2023-03-08T09:42:23.265Z,983.36
2023-03-08T09:43:03.848Z,983.34
2023-03-08T09:43:44.399Z,983.33
2023-03-08T09:44:24.857Z,983.32
2023-03-08T09:45:07.356Z,983.33
2023-03-08T09:45:46.028Z,983.32
2023-03-08T09:46:26.499Z,983.3
2023-03-08T09:47:06.997Z,983.31
2023-03-08T09:47:47.563Z,983.27
2023-03-08T09:48:28.822Z,983.27
2023-03-08T09:49:11.378Z,983.26
2023-03-08T09:49:51.914Z,983.29
2023-03-08T09:50:33.818Z,983.33
2023-03-08T09:51:12.955Z,983.32
2023-03-08T09:51:53.425Z,983.35
2023-03-08T09:52:33.953Z,983.35
2023-03-08T09:53:14.791Z,983.31
2023-03-08T09:53:55.131Z,983.34
2023-03-08T09:54:35.668Z,983.36
2023-03-08T09:55:16.348Z,983.35
2023-03-08T09:55:56.880Z,983.39
2023-03-08T09:56:38.216Z,983.43
2023-03-08T09:57:18.742Z,983.43
2023-03-08T09:57:59.188Z,983.38
2023-03-08T09:58:39.695Z,983.4
2023-03-08T09:59:20.866Z,983.39
2023-03-08T10:00:01.472Z,983.4
2023-03-08T10:00:41.993Z,983.39
2023-03-08T10:03:52.894Z,983.41
2023-03-08T10:04:33.492Z,983.45
2023-03-08T10:05:14.348Z,983.45
2023-03-08T10:05:54.353Z,983.45
2023-03-08T10:06:34.978Z,983.43
2023-03-08T10:07:15.563Z,983.42
2023-03-08T10:08:36.634Z,983.42
2023-03-08T10:09:17.150Z,983.37
2023-03-08T10:09:57.669Z,983.39
2023-03-08T10:10:38.333Z,983.38
2023-03-08T10:11:18.900Z,983.33
2023-03-08T10:11:59.396Z,983.29
2023-03-08T10:12:39.992Z,983.28
2023-03-08T10:13:20.475Z,983.29
2023-03-08T10:14:00.950Z,983.26
2023-03-08T10:14:41.644Z,983.23
2023-03-08T10:15:22.130Z,983.18
2023-03-08T10:16:02.677Z,983.19
2023-03-08T10:16:43.423Z,983.1
2023-03-08T10:17:23.923Z,983.1
2023-03-08T10:18:04.472Z,983.11
2023-03-08T10:18:45.353Z,983.11
2023-03-08T10:19:25.787Z,983.11
2023-03-08T10:20:06.274Z,983.11
2023-03-08T10:20:46.769Z,983.06
2023-03-08T10:21:27.619Z,983.05
2023-03-08T10:22:07.834Z,983.08
2023-03-08T10:22:48.456Z,983.09
2023-03-08T10:23:28.995Z,983.08
2023-03-08T10:24:09.723Z,983.07
2023-03-08T10:24:50.312Z,983.1
2023-03-08T10:25:30.822Z,983.07
2023-03-08T10:26:11.416Z,983.09
2023-03-08T10:26:52.013Z,983.07
2023-03-08T10:27:32.713Z,983.1
2023-03-08T10:28:13.212Z,983.04
2023-03-08T10:28:54.271Z,983.11
2023-03-08T10:31:08.232Z,983.09
2023-03-08T10:31:49.593Z,983.05